Time;durP1;ratioP1;P1;durP2;ratioP2;P2;SDS_P1;SDS_P2;PMS_P1;PMS_P2;Temp;Humidity;BMP_temperature;BMP_pressure;BME280_temperature;BME280_humidity;BME280_pressure;Samples;Min_cycle;Max_cycle;Signal;HPM_P1;HPM_P2
2023/10/21 00:00:37;;;;;;;0.10;0.10;;;19.40;51.50;;;;;;5092041;28;20201;-48
2023/10/21 00:03:08;;;;;;;0.10;0.10;;;19.50;51.60;;;;;;5091501;28;20259;-46
2023/10/21 00:05:39;;;;;;;0.10;0.10;;;19.50;51.50;;;;;;5091640;28;20547;-46
2023/10/21 00:08:10;;;;;;;0.03;0.03;;;19.50;51.50;;;;;;5091649;28;20214;-46
2023/10/21 00:10:41;;;;;;;0.00;0.00;;;19.50;51.50;;;;;;5092500;28;20194;-48
2023/10/21 00:13:12;;;;;;;0.00;0.00;;;19.60;51.40;;;;;;5080971;28;20690;-51
2023/10/21 00:15:44;;;;;;;0.10;0.10;;;19.60;51.40;;;;;;5071284;28;20568;-45
2023/10/21 00:18:15;;;;;;;0.10;0.10;;;19.60;51.40;;;;;;5071476;28;20210;-49
2023/10/21 00:20:45;;;;;;;0.10;0.10;;;19.60;51.40;;;;;;5071559;28;20199;-49
2023/10/21 00:23:19;;;;;;;0.00;0.00;;;19.70;51.40;;;;;;5089141;28;20193;-47
2023/10/21 00:25:50;;;;;;;0.00;0.00;;;19.70;51.40;;;;;;5092007;28;20200;-45
2023/10/21 00:28:20;;;;;;;0.10;0.10;;;19.70;51.40;;;;;;5091339;28;20217;-46
2023/10/21 00:30:53;;;;;;;0.10;0.10;;;19.70;51.40;;;;;;5091388;28;20209;-48
2023/10/21 00:33:24;;;;;;;0.10;0.10;;;19.80;51.40;;;;;;5091529;28;20225;-48
2023/10/21 00:35:54;;;;;;;0.10;0.10;;;19.80;51.40;;;;;;5091169;28;20187;-47
2023/10/21 00:38:25;;;;;;;0.10;0.10;;;19.80;51.30;;;;;;5091463;28;20568;-47
2023/10/21 00:40:57;;;;;;;0.10;0.10;;;19.80;51.20;;;;;;5091727;28;20198;-47
2023/10/21 00:43:38;;;;;;;0.10;0.10;;;19.90;51.20;;;;;;5091722;28;20241;-47
2023/10/21 00:46:16;;;;;;;0.10;0.10;;;19.90;51.20;;;;;;5091401;28;20269;-46
2023/10/21 00:48:47;;;;;;;0.00;0.00;;;19.90;51.20;;;;;;5091633;28;20214;-47
2023/10/21 00:51:18;;;;;;;0.10;0.10;;;19.90;51.10;;;;;;5091352;28;20575;-48
2023/10/21 00:53:48;;;;;;;0.10;0.10;;;20.00;51.10;;;;;;5091501;28;20229;-46
2023/10/21 00:56:19;;;;;;;0.10;0.10;;;20.00;51.00;;;;;;5091785;28;20194;-48
2023/10/21 00:58:50;;;;;;;0.08;0.08;;;20.00;51.10;;;;;;5091288;28;20229;-49
2023/10/21 01:01:23;;;;;;;0.10;0.10;;;20.00;51.00;;;;;;5073977;28;20244;-46
2023/10/21 01:03:54;;;;;;;0.10;0.10;;;20.00;51.00;;;;;;5071139;28;20260;-47
2023/10/21 01:06:25;;;;;;;0.10;0.10;;;20.00;50.90;;;;;;5071043;28;20221;-48
2023/10/21 01:08:55;;;;;;;0.00;0.00;;;20.00;50.90;;;;;;5071169;28;20222;-48
2023/10/21 01:11:26;;;;;;;0.10;0.10;;;20.00;50.80;;;;;;5071367;28;20195;-48
2023/10/21 01:13:56;;;;;;;0.10;0.10;;;20.00;50.80;;;;;;5070611;28;20569;-48
2023/10/21 01:16:29;;;;;;;0.10;0.10;;;20.10;50.80;;;;;;5076382;28;20684;-46
2023/10/21 01:19:00;;;;;;;0.10;0.10;;;20.10;50.80;;;;;;5092886;28;20211;-46
2023/10/21 01:21:30;;;;;;;0.10;0.10;;;20.10;50.70;;;;;;5095009;28;20198;-46
2023/10/21 01:24:03;;;;;;;0.10;0.10;;;20.20;50.80;;;;;;5094866;28;20198;-46
2023/10/21 01:26:33;;;;;;;0.10;0.10;;;20.20;50.80;;;;;;5094826;28;20202;-48
2023/10/21 01:29:09;;;;;;;0.00;0.00;;;20.20;50.80;;;;;;5094181;28;20612;-48
2023/10/21 01:31:40;;;;;;;0.10;0.10;;;20.20;50.70;;;;;;5094347;28;20229;-47
2023/10/21 01:34:10;;;;;;;0.10;0.10;;;20.20;50.80;;;;;;5094724;28;20194;-48
2023/10/21 01:36:41;;;;;;;0.10;0.10;;;20.20;50.80;;;;;;5094516;28;20201;-44
2023/10/21 01:39:14;;;;;;;0.10;0.10;;;20.30;50.80;;;;;;5094425;28;20217;-47
2023/10/21 01:41:44;;;;;;;0.00;0.00;;;20.30;50.80;;;;;;5094144;28;20689;-46
2023/10/21 01:44:15;;;;;;;0.08;0.08;;;20.30;50.80;;;;;;5094431;28;20641;-48
2023/10/21 01:46:46;;;;;;;0.00;0.00;;;20.30;50.80;;;;;;5094702;28;20194;-46
2023/10/21 01:49:16;;;;;;;0.10;0.10;;;20.30;50.80;;;;;;5094408;28;20218;-46
2023/10/21 01:51:47;;;;;;;0.10;0.10;;;20.30;50.80;;;;;;5094195;28;20233;-48
2023/10/21 01:54:20;;;;;;;0.10;0.10;;;20.30;50.80;;;;;;5094705;28;20191;-48
2023/10/21 01:56:50;;;;;;;0.10;0.10;;;20.30;50.80;;;;;;5094476;28;20205;-47
2023/10/21 01:59:21;;;;;;;0.10;0.10;;;20.30;50.80;;;;;;5093857;28;20218;-46
2023/10/21 02:01:52;;;;;;;0.10;0.10;;;20.40;50.90;;;;;;5094055;28;20248;-46
2023/10/21 02:04:23;;;;;;;0.00;0.00;;;20.40;50.80;;;;;;5093945;28;20209;-48
2023/10/21 02:06:53;;;;;;;0.00;0.00;;;20.40;50.80;;;;;;5093853;28;20583;-48
2023/10/21 02:09:26;;;;;;;0.00;0.00;;;20.40;50.90;;;;;;5093817;28;20673;-46
2023/10/21 02:11:57;;;;;;;0.10;0.10;;;20.50;50.90;;;;;;5093758;28;20190;-48
2023/10/21 02:14:28;;;;;;;0.10;0.10;;;20.50;50.90;;;;;;5078016;28;20646;-47
2023/10/21 02:16:59;;;;;;;0.00;0.00;;;20.50;50.80;;;;;;5094102;28;20198;-47
2023/10/21 02:19:30;;;;;;;0.03;0.03;;;20.50;50.80;;;;;;5093628;28;20224;-47
2023/10/21 02:22:00;;;;;;;0.10;0.10;;;20.50;50.80;;;;;;5093513;28;20202;-48
2023/10/21 02:24:37;;;;;;;0.10;0.10;;;20.50;50.80;;;;;;5093967;28;20641;-48
2023/10/21 02:27:09;;;;;;;0.00;0.00;;;20.50;50.70;;;;;;5093841;28;20204;-46
2023/10/21 02:29:40;;;;;;;0.10;0.10;;;20.60;50.70;;;;;;5093184;28;20224;-48
2023/10/21 02:32:11;;;;;;;0.10;0.10;;;20.60;50.70;;;;;;5093464;28;20208;-48
2023/10/21 02:34:42;;;;;;;0.00;0.00;;;20.60;50.70;;;;;;5093214;28;20193;-49
2023/10/21 02:37:13;;;;;;;0.08;0.08;;;20.60;50.70;;;;;;5093502;28;20197;-46
2023/10/21 02:39:46;;;;;;;0.10;0.10;;;20.60;50.70;;;;;;5093100;28;20210;-47
2023/10/21 02:42:17;;;;;;;0.10;0.10;;;20.70;50.70;;;;;;5093490;28;20319;-48
2023/10/21 02:44:48;;;;;;;0.10;0.10;;;20.70;50.70;;;;;;5092733;28;20190;-48
2023/10/21 02:47:19;;;;;;;0.00;0.00;;;20.70;50.60;;;;;;5093691;28;20198;-45
2023/10/21 02:49:49;;;;;;;0.08;0.08;;;20.60;50.50;;;;;;5093331;28;20218;-46
2023/10/21 02:52:20;;;;;;;0.00;0.00;;;20.70;50.60;;;;;;5093075;28;20198;-48
2023/10/21 02:54:53;;;;;;;0.00;0.00;;;20.70;50.60;;;;;;5073072;28;20199;-47
2023/10/21 02:57:23;;;;;;;0.10;0.10;;;20.70;50.60;;;;;;5072993;28;20202;-46
2023/10/21 02:59:54;;;;;;;0.00;0.00;;;20.70;50.50;;;;;;5072714;28;20211;-47
2023/10/21 03:02:25;;;;;;;0.00;0.00;;;20.70;50.50;;;;;;5072811;28;20285;-49
2023/10/21 03:04:55;;;;;;;0.00;0.00;;;20.70;50.50;;;;;;5072586;28;20202;-49
2023/10/21 03:07:26;;;;;;;0.10;0.10;;;20.70;50.50;;;;;;5072536;28;20191;-47
2023/10/21 03:09:59;;;;;;;0.00;0.00;;;20.70;50.50;;;;;;5074423;28;20531;-49
2023/10/21 03:12:29;;;;;;;0.00;0.00;;;20.80;50.50;;;;;;5072469;28;20202;-46
2023/10/21 03:15:00;;;;;;;0.10;0.10;;;20.80;50.50;;;;;;5082831;28;20190;-46
2023/10/21 03:17:31;;;;;;;0.10;0.10;;;20.80;50.40;;;;;;5093041;28;20602;-46
2023/10/21 03:20:01;;;;;;;0.10;0.10;;;20.80;50.50;;;;;;5092670;28;20198;-48
2023/10/21 03:22:32;;;;;;;0.10;0.10;;;20.80;50.50;;;;;;5092635;28;20205;-47
2023/10/21 03:25:05;;;;;;;0.10;0.10;;;20.80;50.50;;;;;;5092728;28;20202;-47
2023/10/21 03:27:36;;;;;;;0.00;0.00;;;20.80;50.50;;;;;;5092602;28;20198;-48
2023/10/21 03:30:07;;;;;;;0.00;0.00;;;20.80;50.40;;;;;;5092354;28;20198;-48
2023/10/21 03:32:38;;;;;;;0.00;0.00;;;20.80;50.40;;;;;;5092219;28;20537;-49
2023/10/21 03:35:09;;;;;;;0.00;0.00;;;20.80;50.40;;;;;;5092467;28;20198;-46
2023/10/21 03:37:40;;;;;;;0.10;0.10;;;20.80;50.40;;;;;;5092364;28;20666;-46
2023/10/21 03:40:13;;;;;;;0.00;0.00;;;20.80;50.40;;;;;;5091815;28;20199;-46
2023/10/21 03:42:44;;;;;;;0.10;0.10;;;20.80;50.40;;;;;;5091120;28;20228;-47
2023/10/21 03:45:15;;;;;;;0.00;0.00;;;20.80;50.40;;;;;;5091811;28;20210;-47
2023/10/21 03:47:45;;;;;;;0.00;0.00;;;20.80;50.40;;;;;;5092357;28;20201;-46
2023/10/21 03:50:16;;;;;;;0.00;0.00;;;20.80;50.40;;;;;;5092042;28;20205;-48
2023/10/21 03:52:47;;;;;;;0.00;0.00;;;20.80;50.40;;;;;;5092372;28;20213;-49
2023/10/21 03:55:19;;;;;;;0.00;0.00;;;20.80;50.40;;;;;;5092157;28;20216;-48
2023/10/21 03:57:50;;;;;;;0.00;0.00;;;20.80;50.40;;;;;;5092106;28;20190;-46
2023/10/21 04:00:21;;;;;;;0.10;0.10;;;20.80;50.40;;;;;;5091948;28;20190;-46
2023/10/21 04:02:52;;;;;;;0.10;0.10;;;20.80;50.40;;;;;;5091829;28;20210;-46
2023/10/21 04:05:22;;;;;;;0.08;0.08;;;20.80;50.40;;;;;;5091736;28;20201;-47
2023/10/21 04:07:55;;;;;;;0.00;0.00;;;20.80;50.40;;;;;;5091699;28;20216;-47
2023/10/21 04:10:27;;;;;;;0.10;0.10;;;20.80;50.40;;;;;;5090064;28;20221;-48
2023/10/21 04:12:58;;;;;;;0.10;0.10;;;20.80;50.40;;;;;;5071097;28;20218;-46
2023/10/21 04:15:29;;;;;;;0.10;0.10;;;20.80;50.50;;;;;;5070934;28;20199;-45
2023/10/21 04:17:59;;;;;;;0.00;0.00;;;20.80;50.40;;;;;;5071731;28;20245;-48
2023/10/21 04:20:31;;;;;;;0.00;0.00;;;20.80;50.40;;;;;;5071373;28;20242;-48
2023/10/21 04:23:02;;;;;;;0.10;0.10;;;20.80;50.40;;;;;;5078041;28;20186;-45
2023/10/21 04:25:35;;;;;;;0.00;0.00;;;20.80;50.40;;;;;;5091735;28;20194;-46
2023/10/21 04:28:06;;;;;;;0.10;0.10;;;20.80;50.40;;;;;;5091469;28;20210;-48
2023/10/21 04:30:37;;;;;;;0.10;0.10;;;20.80;51.10;;;;;;5090827;28;20534;-48
2023/10/21 04:33:08;;;;;;;0.05;0.05;;;20.80;50.40;;;;;;5091150;28;20237;-49
2023/10/21 04:35:39;;;;;;;0.10;0.10;;;20.80;50.40;;;;;;5091024;28;20194;-46
2023/10/21 04:38:11;;;;;;;0.10;0.10;;;20.80;50.40;;;;;;5091070;28;20370;-48
2023/10/21 04:40:44;;;;;;;0.10;0.10;;;20.80;50.40;;;;;;5091600;28;20198;-47
2023/10/21 04:43:15;;;;;;;0.00;0.00;;;20.80;50.50;;;;;;5090908;28;20669;-48
2023/10/21 04:45:45;;;;;;;0.00;0.00;;;20.80;50.40;;;;;;5090071;28;20236;-49
2023/10/21 04:48:16;;;;;;;0.10;0.10;;;20.80;50.50;;;;;;5092063;28;20623;-48
2023/10/21 04:50:47;;;;;;;0.00;0.00;;;20.80;50.50;;;;;;5091752;28;20563;-48
2023/10/21 04:53:18;;;;;;;0.03;0.03;;;20.80;50.50;;;;;;5092219;28;20248;-47
2023/10/21 04:55:50;;;;;;;0.10;0.10;;;20.80;50.50;;;;;;5095394;28;20190;-48
2023/10/21 04:58:21;;;;;;;0.10;0.10;;;20.80;50.40;;;;;;5095400;28;20214;-48
2023/10/21 05:00:53;;;;;;;0.10;0.10;;;20.80;50.40;;;;;;5094817;28;20191;-48
2023/10/21 05:03:23;;;;;;;0.10;0.10;;;20.80;50.40;;;;;;5093207;28;20202;-47
2023/10/21 05:05:54;;;;;;;0.10;0.10;;;20.80;50.40;;;;;;5077321;28;20195;-48
2023/10/21 05:08:25;;;;;;;0.08;0.08;;;20.80;50.40;;;;;;5095118;28;20222;-48
2023/10/21 05:10:57;;;;;;;0.10;0.10;;;20.80;50.40;;;;;;5094875;28;20198;-49
2023/10/21 05:13:28;;;;;;;0.10;0.10;;;20.70;50.40;;;;;;5094781;28;20232;-48
2023/10/21 05:15:58;;;;;;;0.10;0.10;;;20.70;50.40;;;;;;5094420;28;20200;-45
2023/10/21 05:18:29;;;;;;;0.03;0.03;;;20.70;50.40;;;;;;5094631;28;20210;-49
2023/10/21 05:21:00;;;;;;;0.00;0.00;;;20.70;50.40;;;;;;5094668;28;20199;-49
2023/10/21 05:23:30;;;;;;;0.00;0.00;;;20.70;50.40;;;;;;5094859;28;20569;-49
2023/10/21 05:26:03;;;;;;;0.10;0.10;;;20.70;50.40;;;;;;5094802;28;20680;-48
2023/10/21 05:28:34;;;;;;;0.00;0.00;;;20.70;50.40;;;;;;5094322;28;20218;-47
2023/10/21 05:31:05;;;;;;;0.00;0.00;;;20.70;50.40;;;;;;5094618;28;20191;-50
2023/10/21 05:33:37;;;;;;;0.00;0.00;;;20.70;50.30;;;;;;5094416;28;20225;-47
2023/10/21 05:36:07;;;;;;;0.00;0.00;;;20.70;50.30;;;;;;5094688;28;20209;-48
2023/10/21 05:38:39;;;;;;;0.00;0.00;;;20.70;50.40;;;;;;5094667;28;20233;-46
2023/10/21 05:41:11;;;;;;;0.10;0.10;;;20.70;50.30;;;;;;5094328;28;20209;-48
2023/10/21 05:43:42;;;;;;;0.10;0.10;;;20.70;50.30;;;;;;5078213;28;20219;-50
2023/10/21 05:46:13;;;;;;;0.00;0.00;;;20.70;50.30;;;;;;5073913;28;20199;-47
2023/10/21 05:48:43;;;;;;;0.10;0.10;;;20.60;50.20;;;;;;5074532;28;20238;-49
2023/10/21 05:51:14;;;;;;;0.03;0.03;;;20.60;50.20;;;;;;5074098;28;20199;-47
2023/10/21 05:53:45;;;;;;;0.05;0.05;;;20.60;50.20;;;;;;5073928;28;20272;-48
2023/10/21 05:56:17;;;;;;;0.10;0.10;;;20.60;50.20;;;;;;5073775;28;20202;-46
2023/10/21 05:58:48;;;;;;;0.05;0.05;;;20.60;50.20;;;;;;5072928;28;20219;-48
2023/10/21 06:01:19;;;;;;;0.10;0.10;;;20.60;50.20;;;;;;5073822;28;20206;-48
2023/10/21 06:03:49;;;;;;;0.10;0.10;;;20.60;50.20;;;;;;5073244;28;20218;-48
2023/10/21 06:06:21;;;;;;;0.00;0.00;;;20.50;50.20;;;;;;5073729;28;20206;-48
2023/10/21 06:08:52;;;;;;;0.10;0.10;;;20.50;50.10;;;;;;5073646;28;20298;-48
2023/10/21 06:11:25;;;;;;;0.00;0.00;;;20.50;50.20;;;;;;5073783;28;20203;-48
2023/10/21 06:13:55;;;;;;;0.10;0.10;;;20.50;50.10;;;;;;5072843;28;20230;-48
2023/10/21 06:16:26;;;;;;;0.00;0.00;;;20.50;50.10;;;;;;5073408;28;20199;-46
2023/10/21 06:18:56;;;;;;;0.00;0.00;;;20.50;50.10;;;;;;5073274;28;20218;-49
2023/10/21 06:21:27;;;;;;;0.10;0.10;;;20.50;50.10;;;;;;5073268;28;20249;-46
2023/10/21 06:23:58;;;;;;;0.00;0.00;;;20.50;50.10;;;;;;5073478;28;20206;-46
2023/10/21 06:26:31;;;;;;;0.10;0.10;;;20.40;50.00;;;;;;5073397;28;20206;-48
2023/10/21 06:29:02;;;;;;;0.00;0.00;;;20.40;50.00;;;;;;5072677;28;20233;-48
2023/10/21 06:31:33;;;;;;;0.00;0.00;;;20.40;50.00;;;;;;5085280;28;20217;-48
2023/10/21 06:34:04;;;;;;;0.00;0.00;;;20.40;50.00;;;;;;5093110;28;20701;-46
2023/10/21 06:36:35;;;;;;;0.00;0.00;;;20.40;50.00;;;;;;5093358;28;20194;-46
2023/10/21 06:39:05;;;;;;;0.10;0.10;;;20.30;49.90;;;;;;5092713;28;20214;-45
2023/10/21 06:41:38;;;;;;;0.10;0.10;;;20.40;50.00;;;;;;5093011;28;20194;-46
2023/10/21 06:44:09;;;;;;;0.10;0.10;;;20.40;50.00;;;;;;5074516;28;20702;-47
2023/10/21 06:46:40;;;;;;;0.08;0.08;;;20.30;49.90;;;;;;5092300;28;20207;-46
2023/10/21 06:49:12;;;;;;;0.10;0.10;;;20.30;49.90;;;;;;5093037;28;20673;-48
2023/10/21 06:51:42;;;;;;;0.08;0.08;;;20.30;49.90;;;;;;5092895;28;20202;-45
2023/10/21 06:54:13;;;;;;;0.10;0.10;;;20.30;49.90;;;;;;5092845;28;20233;-46
2023/10/21 06:56:47;;;;;;;0.10;0.10;;;20.30;50.00;;;;;;5093004;28;20373;-48
2023/10/21 06:59:18;;;;;;;0.00;0.00;;;20.30;50.00;;;;;;5091731;28;20693;-47
2023/10/21 07:01:49;;;;;;;0.10;0.10;;;20.30;50.00;;;;;;5092307;28;20198;-46
2023/10/21 07:04:20;;;;;;;0.00;0.00;;;20.30;50.00;;;;;;5091181;28;20202;-47
2023/10/21 07:06:50;;;;;;;0.10;0.10;;;20.30;50.00;;;;;;5092496;28;20202;-46
2023/10/21 07:09:21;;;;;;;0.00;0.00;;;20.30;50.00;;;;;;5092441;28;20217;-48
2023/10/21 07:11:53;;;;;;;0.10;0.10;;;20.20;50.00;;;;;;5085755;28;20195;-48
2023/10/21 07:14:27;;;;;;;0.10;0.10;;;20.20;50.00;;;;;;5073692;28;20229;-48
2023/10/21 07:16:58;;;;;;;0.10;0.10;;;20.20;50.00;;;;;;5091808;28;20190;-45
2023/10/21 07:19:31;;;;;;;0.10;0.10;;;20.20;50.00;;;;;;5092278;28;20263;-47
2023/10/21 07:22:03;;;;;;;0.10;0.10;;;20.20;50.00;;;;;;5092043;28;20620;-46
2023/10/21 07:24:34;;;;;;;0.10;0.10;;;20.20;49.90;;;;;;5092292;28;20198;-47
2023/10/21 07:27:07;;;;;;;0.10;0.10;;;20.20;49.90;;;;;;5092246;28;20198;-46
2023/10/21 07:29:38;;;;;;;0.00;0.00;;;20.20;50.00;;;;;;5091904;28;20218;-46
2023/10/21 07:32:09;;;;;;;0.10;0.10;;;20.20;50.00;;;;;;5092175;28;20194;-47
2023/10/21 07:34:40;;;;;;;0.10;0.10;;;20.10;49.90;;;;;;5091820;28;20232;-50
2023/10/21 07:37:10;;;;;;;0.05;0.05;;;20.20;49.90;;;;;;5092045;28;20194;-46
2023/10/21 07:39:41;;;;;;;0.10;0.10;;;20.10;49.90;;;;;;5092008;28;20245;-46
2023/10/21 07:42:14;;;;;;;0.10;0.10;;;20.10;49.90;;;;;;5091475;28;20190;-47
2023/10/21 07:44:47;;;;;;;0.10;0.10;;;20.10;49.90;;;;;;5091912;28;20251;-47
2023/10/21 07:47:18;;;;;;;0.10;0.10;;;20.10;49.90;;;;;;5092664;28;20251;-47
2023/10/21 07:49:50;;;;;;;0.00;0.00;;;20.10;50.00;;;;;;5092019;28;20218;-45
2023/10/21 07:52:21;;;;;;;0.10;0.10;;;20.00;50.00;;;;;;5092187;28;20199;-48
2023/10/21 07:54:52;;;;;;;0.10;0.10;;;20.00;50.00;;;;;;5091477;28;20225;-47
2023/10/21 07:57:24;;;;;;;0.10;0.10;;;20.00;49.90;;;;;;5090644;28;20193;-47
2023/10/21 07:59:55;;;;;;;0.10;0.10;;;20.00;50.00;;;;;;5091215;28;20245;-49
2023/10/21 08:02:26;;;;;;;0.00;0.00;;;20.00;50.00;;;;;;5091534;28;20197;-49
2023/10/21 08:04:57;;;;;;;0.00;0.00;;;20.00;50.00;;;;;;5075425;28;20203;-45
2023/10/21 08:07:28;;;;;;;0.10;0.10;;;20.00;50.00;;;;;;5071892;28;20233;-46
2023/10/21 08:09:58;;;;;;;0.10;0.10;;;20.00;50.00;;;;;;5071287;28;20268;-46
2023/10/21 08:12:31;;;;;;;0.00;0.00;;;20.00;50.00;;;;;;5070688;28;20194;-49
2023/10/21 08:15:07;;;;;;;0.10;0.10;;;20.00;50.00;;;;;;5071310;28;20226;-46
2023/10/21 08:17:38;;;;;;;0.00;0.00;;;19.90;49.90;;;;;;5071461;28;20208;-48
2023/10/21 08:20:09;;;;;;;0.10;0.10;;;20.00;49.90;;;;;;5071612;28;20560;-49
2023/10/21 08:22:40;;;;;;;0.10;0.10;;;19.90;49.90;;;;;;5071460;28;20203;-48
2023/10/21 08:25:11;;;;;;;0.10;0.10;;;19.90;49.90;;;;;;5071275;28;20611;-48
2023/10/21 08:27:44;;;;;;;0.00;0.00;;;19.90;49.90;;;;;;5071573;28;20199;-48
2023/10/21 08:30:15;;;;;;;0.10;0.10;;;19.90;49.90;;;;;;5075090;28;20198;-48
2023/10/21 08:32:47;;;;;;;0.05;0.05;;;19.90;49.90;;;;;;5075254;28;20194;-46
2023/10/21 08:35:17;;;;;;;0.00;0.00;;;19.90;49.90;;;;;;5076292;28;20317;-45
2023/10/21 08:37:48;;;;;;;0.03;0.03;;;19.90;49.80;;;;;;5095516;28;20197;-49
2023/10/21 08:40:19;;;;;;;0.10;0.10;;;19.80;49.80;;;;;;5095535;28;20236;-47
2023/10/21 08:42:52;;;;;;;0.10;0.10;;;19.80;49.80;;;;;;5086058;28;20727;-46
2023/10/21 08:45:22;;;;;;;0.10;0.10;;;19.80;49.80;;;;;;5089246;28;20638;-45
2023/10/21 08:47:54;;;;;;;0.00;0.00;;;19.80;49.80;;;;;;5088637;28;20217;-46
2023/10/21 08:50:25;;;;;;;0.10;0.10;;;19.80;49.80;;;;;;5103669;28;20633;-46
2023/10/21 08:52:57;;;;;;;0.00;0.00;;;19.80;49.80;;;;;;5098023;28;20205;-44
2023/10/21 08:55:28;;;;;;;0.00;0.00;;;19.80;49.80;;;;;;5095131;28;20221;-45
2023/10/21 08:58:01;;;;;;;0.00;0.00;;;19.80;49.80;;;;;;5094244;28;20225;-44
2023/10/21 09:00:32;;;;;;;0.10;0.10;;;19.70;49.80;;;;;;5094500;28;20194;-46
2023/10/21 09:03:03;;;;;;;0.10;0.10;;;19.70;49.80;;;;;;5094755;28;20201;-44
2023/10/21 09:05:36;;;;;;;0.10;0.10;;;19.70;50.30;;;;;;5094136;28;20212;-46
2023/10/21 09:08:07;;;;;;;0.10;0.10;;;19.70;49.70;;;;;;5095171;28;20218;-45
2023/10/21 09:10:37;;;;;;;0.03;0.03;;;19.70;49.70;;;;;;5088973;28;20194;-46
2023/10/21 09:13:18;;;;;;;0.10;0.10;;;19.70;49.80;;;;;;5093234;28;20194;-46
2023/10/21 09:15:49;;;;;;;0.00;0.00;;;19.70;49.70;;;;;;5092594;28;20224;-47
2023/10/21 09:18:19;;;;;;;0.10;0.10;;;19.70;49.70;;;;;;5092462;28;20225;-47
2023/10/21 09:20:51;;;;;;;0.10;0.10;;;19.70;49.80;;;;;;5093456;28;20190;-45
2023/10/21 09:23:22;;;;;;;0.00;0.00;;;19.70;49.80;;;;;;5094163;28;20202;-45
2023/10/21 09:25:53;;;;;;;0.00;0.00;;;19.60;49.70;;;;;;5093730;28;20205;-47
2023/10/21 09:28:29;;;;;;;0.00;0.00;;;19.60;49.70;;;;;;5094049;28;20226;-48
2023/10/21 09:31:01;;;;;;;0.00;0.00;;;19.60;49.70;;;;;;5093533;28;20194;-47
2023/10/21 09:33:32;;;;;;;0.10;0.10;;;19.60;49.70;;;;;;5093694;28;20244;-48
2023/10/21 09:36:07;;;;;;;0.10;0.10;;;19.60;49.70;;;;;;5094140;28;20693;-45
2023/10/21 09:38:41;;;;;;;0.10;0.10;;;19.60;49.70;;;;;;5092990;28;20263;-45
2023/10/21 09:41:13;;;;;;;0.00;0.00;;;19.60;49.70;;;;;;5093630;28;20198;-45
2023/10/21 09:43:51;;;;;;;0.10;0.10;;;19.60;49.70;;;;;;5093743;28;20237;-46
2023/10/21 09:46:25;;;;;;;0.03;0.03;;;19.60;49.70;;;;;;5092827;28;20197;-47
2023/10/21 09:48:56;;;;;;;0.10;0.10;;;19.60;49.70;;;;;;5094385;28;20372;-45
2023/10/21 09:51:30;;;;;;;0.10;0.10;;;19.50;49.70;;;;;;5093251;28;20190;-45
2023/10/21 09:54:03;;;;;;;0.00;0.00;;;19.50;49.70;;;;;;5093736;28;20190;-47
2023/10/21 09:56:35;;;;;;;0.10;0.10;;;19.50;49.70;;;;;;5093146;28;20228;-47
2023/10/21 09:59:08;;;;;;;0.10;0.10;;;19.50;49.70;;;;;;5085131;28;20215;-49
2023/10/21 10:01:39;;;;;;;0.00;0.00;;;19.50;49.70;;;;;;5088075;28;20186;-48
2023/10/21 10:04:11;;;;;;;0.03;0.03;;;19.50;49.70;;;;;;5093150;28;20272;-46
2023/10/21 10:06:43;;;;;;;0.05;0.05;;;19.50;49.70;;;;;;5093029;28;20494;-48
2023/10/21 10:09:16;;;;;;;0.00;0.00;;;19.50;49.70;;;;;;5093566;28;20637;-46
2023/10/21 10:11:48;;;;;;;0.00;0.00;;;19.50;49.70;;;;;;5092725;28;20225;-47
2023/10/21 10:14:20;;;;;;;0.10;0.10;;;19.50;49.70;;;;;;5093608;28;20197;-46
2023/10/21 10:16:51;;;;;;;0.10;0.10;;;19.50;50.30;;;;;;5093068;28;20214;-48
2023/10/21 10:19:39;;;;;;;0.10;0.10;;;19.40;49.70;;;;;;5092561;28;20554;-48
2023/10/21 10:22:23;;;;;;;0.10;0.10;;;19.50;49.70;;;;;;5092691;28;20190;-44
2023/10/21 10:25:10;;;;;;;0.10;0.10;;;19.40;49.60;;;;;;5092518;28;20201;-47
2023/10/21 10:27:42;;;;;;;0.10;0.10;;;19.40;49.70;;;;;;5092750;28;20230;-48
2023/10/21 10:30:21;;;;;;;0.10;0.10;;;19.40;49.60;;;;;;5092184;28;20437;-49
2023/10/21 10:32:54;;;;;;;0.08;0.08;;;19.40;49.60;;;;;;5093214;28;20194;-46
2023/10/21 10:35:35;;;;;;;0.10;0.10;;;19.40;49.70;;;;;;5091702;28;20835;-47
2023/10/21 10:38:19;;;;;;;0.00;0.00;;;19.40;49.70;;;;;;5091898;28;20210;-47
2023/10/21 10:40:51;;;;;;;0.10;0.10;;;19.30;49.70;;;;;;5092322;28;20641;-45
2023/10/21 10:43:22;;;;;;;0.00;0.00;;;19.30;49.70;;;;;;5092539;28;20199;-46
2023/10/21 10:45:55;;;;;;;0.00;0.00;;;19.30;49.70;;;;;;5093098;28;20669;-47
2023/10/21 10:48:29;;;;;;;0.10;0.10;;;19.30;49.70;;;;;;5093066;28;20214;-47
2023/10/21 10:51:10;;;;;;;0.10;0.10;;;19.30;49.70;;;;;;5093261;28;20600;-47
2023/10/21 10:53:41;;;;;;;0.10;0.10;;;19.30;49.70;;;;;;5092847;28;20600;-45
2023/10/21 10:56:14;;;;;;;0.10;0.10;;;19.30;49.70;;;;;;5092187;28;20221;-47
2023/10/21 10:58:47;;;;;;;0.00;0.00;;;19.30;49.70;;;;;;5092294;28;20213;-49
2023/10/21 11:01:25;;;;;;;0.10;0.10;;;19.30;49.70;;;;;;5092890;28;20198;-47
2023/10/21 11:04:00;;;;;;;0.10;0.10;;;19.30;49.70;;;;;;5093041;28;20213;-47
2023/10/21 11:06:34;;;;;;;0.10;0.10;;;19.30;49.70;;;;;;5093507;28;20197;-49
2023/10/21 11:09:06;;;;;;;0.10;0.10;;;19.30;49.70;;;;;;5092734;28;20684;-49
2023/10/21 11:11:48;;;;;;;0.00;0.00;;;19.20;49.60;;;;;;5091607;28;20195;-49
2023/10/21 11:14:19;;;;;;;0.10;0.10;;;19.20;49.70;;;;;;5088779;28;20641;-47
2023/10/21 11:16:52;;;;;;;0.08;0.08;;;19.20;49.70;;;;;;5092632;28;20217;-49
2023/10/21 11:19:22;;;;;;;0.10;0.10;;;19.20;49.60;;;;;;5091539;28;20588;-47
2023/10/21 11:21:53;;;;;;;0.00;0.00;;;19.20;49.70;;;;;;5092607;28;20231;-48
2023/10/21 11:24:26;;;;;;;0.10;0.10;;;19.20;49.70;;;;;;5092520;28;20198;-46
2023/10/21 11:26:57;;;;;;;0.10;0.10;;;19.20;49.70;;;;;;5090655;28;20198;-45
2023/10/21 11:29:28;;;;;;;0.00;0.00;;;19.20;49.70;;;;;;5092466;28;20214;-45
2023/10/21 11:32:00;;;;;;;0.10;0.10;;;19.10;49.70;;;;;;5092592;28;20194;-46
2023/10/21 11:34:32;;;;;;;0.10;0.10;;;19.20;49.70;;;;;;5092446;28;20205;-48
2023/10/21 11:37:04;;;;;;;0.10;0.10;;;19.10;49.70;;;;;;5092361;28;20222;-46
2023/10/21 11:39:35;;;;;;;0.05;0.05;;;19.10;49.70;;;;;;5092129;28;20218;-46
2023/10/21 11:42:16;;;;;;;0.10;0.10;;;19.10;49.70;;;;;;5092208;28;20198;-48
2023/10/21 11:44:56;;;;;;;0.05;0.05;;;19.10;49.70;;;;;;5092104;28;20657;-45
2023/10/21 11:47:30;;;;;;;0.05;0.05;;;19.10;49.70;;;;;;5092714;28;20258;-45
2023/10/21 11:50:01;;;;;;;0.00;0.00;;;19.10;49.70;;;;;;5092211;28;20194;-45
2023/10/21 11:52:32;;;;;;;0.00;0.00;;;19.10;49.70;;;;;;5092124;28;20198;-47
2023/10/21 12:15:06;;;;;;;0.00;0.00;;;19.00;49.70;;;;;;5065885;28;20229;-46
2023/10/21 12:23:59;;;;;;;0.10;0.10;;;19.00;49.80;;;;;;5049261;28;20286;-49
2023/10/21 12:40:36;;;;;;;0.00;0.00;;;18.90;49.70;;;;;;5070977;28;20305;-48
2023/10/21 12:43:24;;;;;;;0.00;0.00;;;18.90;49.70;;;;;;5070941;28;20195;-48
2023/10/21 12:45:58;;;;;;;0.10;0.10;;;18.90;49.70;;;;;;5085758;28;20195;-49
2023/10/21 12:48:29;;;;;;;0.00;0.00;;;18.90;49.80;;;;;;5092086;28;20263;-47
2023/10/21 12:51:03;;;;;;;0.10;0.10;;;18.90;49.80;;;;;;5091397;28;20194;-47
2023/10/21 12:53:36;;;;;;;0.10;0.10;;;18.90;49.80;;;;;;5091117;28;20186;-48
2023/10/21 12:56:06;;;;;;;0.10;0.10;;;18.90;49.90;;;;;;5091667;28;20229;-46
2023/10/21 12:58:39;;;;;;;0.20;0.20;;;18.90;49.90;;;;;;5091591;28;20214;-47
2023/10/21 13:01:12;;;;;;;0.10;0.10;;;18.90;49.90;;;;;;5091102;28;20209;-48
2023/10/21 13:03:43;;;;;;;0.00;0.00;;;18.80;49.90;;;;;;5090690;28;20202;-47
2023/10/21 13:06:14;;;;;;;0.10;0.10;;;18.90;49.90;;;;;;5091592;28;20194;-49
2023/10/21 13:08:46;;;;;;;0.10;0.10;;;18.90;49.90;;;;;;5091495;28;20704;-48
2023/10/21 13:11:17;;;;;;;0.10;0.10;;;18.80;49.80;;;;;;5091020;28;20221;-47
2023/10/21 13:13:50;;;;;;;0.10;0.10;;;18.80;49.70;;;;;;5090740;28;20191;-46
2023/10/21 13:16:20;;;;;;;0.10;0.10;;;18.80;49.70;;;;;;5094409;28;20257;-48
2023/10/21 13:18:51;;;;;;;0.00;0.00;;;18.80;49.70;;;;;;5094702;28;20685;-47
2023/10/21 13:21:22;;;;;;;0.10;0.10;;;18.80;49.70;;;;;;5091411;28;20681;-48
2023/10/21 13:23:55;;;;;;;0.10;0.10;;;18.80;49.70;;;;;;5076896;28;20194;-47
2023/10/21 13:26:26;;;;;;;0.00;0.00;;;18.80;49.80;;;;;;5074630;28;20206;-49
2023/10/21 13:28:56;;;;;;;0.10;0.10;;;18.80;49.70;;;;;;5074141;28;20215;-47
2023/10/21 13:31:27;;;;;;;0.10;0.10;;;18.80;49.80;;;;;;5074679;28;20194;-48
2023/10/21 13:33:58;;;;;;;0.00;0.00;;;18.80;49.80;;;;;;5074548;28;20194;-48
2023/10/21 13:36:28;;;;;;;0.10;0.10;;;18.80;49.80;;;;;;5074043;28;20226;-47
2023/10/21 13:39:08;;;;;;;0.10;0.10;;;18.70;49.80;;;;;;5073933;28;20218;-47
2023/10/21 13:41:39;;;;;;;0.00;0.00;;;18.70;49.80;;;;;;5074316;28;20205;-47
2023/10/21 13:44:10;;;;;;;0.00;0.00;;;18.70;49.80;;;;;;5074325;28;20206;-48
2023/10/21 13:46:40;;;;;;;0.00;0.00;;;18.80;49.90;;;;;;5074124;28;20213;-47
2023/10/21 13:49:15;;;;;;;0.05;0.05;;;18.70;49.80;;;;;;5074543;28;20222;-47
2023/10/21 13:51:47;;;;;;;0.05;0.05;;;18.70;49.80;;;;;;5074136;28;20194;-47